地図

経路データ

SID SEASON NUMBER BASIN SUBBASIN NAME ISO_TIME NATURE LAT LON WMO_WIND WMO_PRES WMO_AGENCY TRACK_TYPE DIST2LAND LANDFALL IFLAG USA_AGENCY USA_ATCF_ID USA_LAT USA_LON USA_RECORD USA_STATUS USA_WIND USA_PRES USA_SSHS USA_R34_NE USA_R34_SE USA_R34_SW USA_R34_NW USA_R50_NE USA_R50_SE USA_R50_SW USA_R50_NW USA_R64_NE USA_R64_SE USA_R64_SW USA_R64_NW USA_POCI USA_ROCI USA_RMW USA_EYE TOKYO_LAT TOKYO_LON TOKYO_GRADE TOKYO_WIND TOKYO_PRES TOKYO_R50_DIR TOKYO_R50_LONG TOKYO_R50_SHORT TOKYO_R30_DIR TOKYO_R30_LONG TOKYO_R30_SHORT TOKYO_LAND CMA_LAT CMA_LON CMA_CAT CMA_WIND CMA_PRES HKO_LAT HKO_LON HKO_CAT HKO_WIND HKO_PRES NEWDELHI_LAT NEWDELHI_LON NEWDELHI_GRADE NEWDELHI_WIND NEWDELHI_PRES NEWDELHI_CI NEWDELHI_DP NEWDELHI_POCI REUNION_LAT REUNION_LON REUNION_TYPE REUNION_WIND REUNION_PRES REUNION_TNUM REUNION_CI REUNION_RMW REUNION_R34_NE REUNION_R34_SE REUNION_R34_SW REUNION_R34_NW REUNION_R50_NE REUNION_R50_SE REUNION_R50_SW REUNION_R50_NW REUNION_R64_NE REUNION_R64_SE REUNION_R64_SW REUNION_R64_NW BOM_LAT BOM_LON BOM_TYPE BOM_WIND BOM_PRES BOM_TNUM BOM_CI BOM_RMW BOM_R34_NE BOM_R34_SE BOM_R34_SW BOM_R34_NW BOM_R50_NE BOM_R50_SE BOM_R50_SW BOM_R50_NW BOM_R64_NE BOM_R64_SE BOM_R64_SW BOM_R64_NW BOM_ROCI BOM_POCI BOM_EYE BOM_POS_METHOD BOM_PRES_METHOD NADI_LAT NADI_LON NADI_CAT NADI_WIND NADI_PRES WELLINGTON_LAT WELLINGTON_LON WELLINGTON_WIND WELLINGTON_PRES DS824_LAT DS824_LON DS824_STAGE DS824_WIND DS824_PRES TD9636_LAT TD9636_LON TD9636_STAGE TD9636_WIND TD9636_PRES TD9635_LAT TD9635_LON TD9635_WIND TD9635_PRES TD9635_ROCI NEUMANN_LAT NEUMANN_LON NEUMANN_CLASS NEUMANN_WIND NEUMANN_PRES MLC_LAT MLC_LON MLC_CLASS MLC_WIND MLC_PRES USA_GUST BOM_GUST BOM_GUST_PER REUNION_GUST REUNION_GUST_PER USA_SEAHGT USA_SEARAD_NE USA_SEARAD_SE USA_SEARAD_SW USA_SEARAD_NW STORM_SPEED STORM_DIR
1965339N06071 1965 119 NI AS NOT_NAMED 1965-12-05 06:00:00 TS 6.50000 71.4000 main 623 623 O________O____ jtwc_io IO131965 6.50000 71.4000 -1 6.50000 71.4000 TC 1 0
1965339N06071 1965 119 NI AS NOT_NAMED 1965-12-05 09:00:00 TS 6.54500 71.4000 main 623 618 P________P____ IO131965 6.54500 71.4000 -1 6.54500 71.4000 TC 1 0
1965339N06071 1965 119 NI AS NOT_NAMED 1965-12-05 12:00:00 TS 6.60000 71.4000 main 618 613 O________O____ jtwc_io IO131965 6.60000 71.4000 -1 6.60000 71.4000 TC 25 1 350
1965339N06071 1965 119 NI AS NOT_NAMED 1965-12-05 15:00:00 TS 6.68000 71.4000 main 613 609 P________PO___ IO131965 6.67750 71.4000 -1 6.67750 71.4000 TC 25 6.70000 71.4000 1 2 7
1965339N06071 1965 119 NI AS NOT_NAMED 1965-12-05 18:00:00 TS 6.80032 71.4016 main 609 605 O________OP___ jtwc_io IO131965 6.80000 71.4000 -1 6.80000 71.4000 TC 25 6.80159 71.4078 1 3 0
1965339N06071 1965 119 NI AS NOT_NAMED 1965-12-05 21:00:00 TS 6.95979 71.4034 main 601 593 P________PP___ IO131965 6.97000 71.4000 -1 6.97000 71.4000 TC 25 6.93254 71.4124 1 4 0
1965339N06071 1965 119 NI AS NOT_NAMED 1965-12-06 00:00:00 TS 7.17407 71.4036 main 593 584 O________OP___ jtwc_io IO131965 7.20000 71.4000 -1 7.20000 71.4000 TC 25 7.12222 71.4109 1 5 0
1965339N06071 1965 119 NI AS NOT_NAMED 1965-12-06 03:00:00 TS 7.44167 71.4000 main 584 568 P________PO___ IO131965 7.46250 71.4000 -1 7.46250 71.4000 TC 25 7.40000 71.4000 1 6 359
1965339N06071 1965 119 NI AS NOT_NAMED 1965-12-06 06:00:00 TS 7.79333 71.3933 main 568 555 O________OP___ jtwc_io IO131965 7.80000 71.4000 -1 7.80000 71.4000 TC 25 7.77998 71.3798 1 8 358
1965339N06071 1965 119 NI AS NOT_NAMED 1965-12-06 09:00:00 TS 8.24333 71.3826 main 555 544 P________PP___ IO131965 8.25750 71.3925 -1 8.25750 71.3925 TC 25 8.21498 71.3626 1 9 0
1965339N06071 1965 119 NI AS NOT_NAMED 1965-12-06 12:00:00 TS 8.68083 71.3881 main 544 532 O________OP___ jtwc_io IO131965 8.70000 71.4000 -1 8.70000 71.4000 TC 25 8.64249 71.3642 1 8 2
1965339N06071 1965 119 NI AS NOT_NAMED 1965-12-06 15:00:00 TS 9.00166 71.4233 main 532 511 P________PO___ IO131965 9.00249 71.4350 -1 9.00249 71.4350 TC 25 9.00000 71.4000 1 5 11
1965339N06071 1965 119 NI AS NOT_NAMED 1965-12-06 18:00:00 TS 9.20541 71.4950 main 511 496 O________OP___ jtwc_io IO131965 9.20000 71.5000 -1 9.20000 71.5000 TC 25 9.21624 71.4850 1 4 27
1965339N06071 1965 119 NI AS NOT_NAMED 1965-12-06 21:00:00 TS 9.33332 71.5917 main 496 480 P________PP___ IO131965 9.32249 71.5850 -1 9.32249 71.5850 TC 25 9.35498 71.6050 1 3 46
1965339N06071 1965 119 NI AS NOT_NAMED 1965-12-07 00:00:00 TS 9.41375 71.7158 main 480 465 O________OP___ jtwc_io IO131965 9.40000 71.7000 -1 9.40000 71.7000 TC 25 9.44124 71.7475 1 3 56
1965339N06071 1965 119 NI AS NOT_NAMED 1965-12-07 03:00:00 TS 9.50999 71.8567 main 456 441 P________PO___ IO131965 9.51499 71.8350 -1 9.51499 71.8350 TC 25 9.50000 71.9000 1 3 59
1965339N06071 1965 119 NI AS NOT_NAMED 1965-12-07 06:00:00 TS 9.58917 72.0156 main 441 423 O________OP___ jtwc_io IO131965 9.60000 72.0000 -1 9.60000 72.0000 TC 25 9.56751 72.0469 1 4 74
1965339N06071 1965 119 NI AS NOT_NAMED 1965-12-07 09:00:00 TS 9.61002 72.2050 main 423 406 P________PP___ IO131965 9.60752 72.2075 -1 9.60752 72.2075 TC 30 9.61501 72.2001 1 4 85
1965339N06071 1965 119 NI AS NOT_NAMED 1965-12-07 12:00:00 TS 9.61834 72.3844 main 406 391 O________OP___ jtwc_io IO131965 9.60000 72.4000 -1 9.60000 72.4000 TC 35 9.65501 72.3532 1 3 81
1965339N06071 1965 119 NI AS NOT_NAMED 1965-12-07 15:00:00 TS 9.65665 72.5050 main 391 381 P________PO___ IO131965 9.63497 72.5075 -1 9.63497 72.5075 TC 35 9.70000 72.5000 2 2 66
1965339N06071 1965 119 NI AS NOT_NAMED 1965-12-07 18:00:00 TS 9.71309 72.6040 main 381 367 O________OP___ jtwc_io IO131965 9.70000 72.6000 -1 9.70000 72.6000 TC 35 9.73928 72.6121 2 3 60
1965339N06071 1965 119 NI AS NOT_NAMED 1965-12-07 21:00:00 TS 9.78662 72.7351 main 367 343 P________PP___ IO131965 9.78500 72.7425 -1 9.78500 72.7425 TC 35 9.78986 72.7203 2 3 57
1965339N06071 1965 119 NI AS NOT_NAMED 1965-12-08 00:00:00 TS 9.89017 72.8811 main 343 328 O________OP___ jtwc_io IO131965 9.90000 72.9000 -1 9.90000 72.9000 TC 35 9.87051 72.8434 2 4 50
1965339N06071 1965 119 NI AS NOT_NAMED 1965-12-08 03:00:00 TS 10.0183 73.0184 main 328 297 P________PO___ IO131965 10.0275 73.0276 -1 10.0275 73.0276 TC 35 10.0000 73.0000 3 5 46
1965339N06071 1965 119 NI AS NOT_NAMED 1965-12-08 06:00:00 TS 10.2013 73.2127 main 297 257 O________OP___ jtwc_io IO131965 10.2000 73.2000 -1 10.2000 73.2000 TC 35 10.2039 73.2381 3 6 48
1965339N06071 1965 119 NI AS NOT_NAMED 1965-12-08 09:00:00 TS 10.4418 73.4973 main 257 211 P________PP___ IO131965 10.4351 73.4924 -1 10.4351 73.4924 TC 35 10.4552 73.5071 3 8 48
1965339N06071 1965 119 NI AS NOT_NAMED 1965-12-08 12:00:00 TS 10.7096 73.7908 main 211 172 O________OP___ jtwc_io IO131965 10.7000 73.8000 -1 10.7000 73.8000 TC 35 10.7289 73.7725 3 7 44
1965339N06071 1965 119 NI AS NOT_NAMED 1965-12-08 15:00:00 TS 10.9716 74.0200 main 172 141 P________PO___ IO131965 10.9575 74.0300 -1 10.9575 74.0300 TC 35 11.0000 74.0000 3 6 39
1965339N06071 1965 119 NI AS NOT_NAMED 1965-12-08 18:00:00 TS 11.1999 74.1932 main 141 118 O________OP___ jtwc_io IO131965 11.2000 74.2000 -1 11.2000 74.2000 TC 35 11.1996 74.1797 3 5 36
1965339N06071 1965 119 NI AS NOT_NAMED 1965-12-08 21:00:00 TS 11.3891 74.3291 main 118 97 P________PP___ IO131965 11.3850 74.3375 -1 11.3850 74.3375 TC 35 11.3974 74.3123 3 5 26
1965339N06071 1965 119 NI AS NOT_NAMED 1965-12-09 00:00:00 TS 11.6072 74.3963 main 97 83 O________OP___ jtwc_io IO131965 11.6000 74.4000 -1 11.6000 74.4000 TC 35 11.6215 74.3889 3 5 6
1965339N06071 1965 119 NI AS NOT_NAMED 1965-12-09 03:00:00 TS 11.9083 74.3917 main 83 73 P________PO___ IO131965 11.9125 74.3875 -1 11.9125 74.3875 TC 35 11.9000 74.4000 3 7 353
1965339N06071 1965 119 NI AS NOT_NAMED 1965-12-09 06:00:00 TS 12.2932 74.3133 main 73 63 O________OP___ jtwc_io IO131965 12.3000 74.3000 -1 12.3000 74.3000 TC 35 12.2797 74.3400 3 9 346
1965339N06071 1965 119 NI AS NOT_NAMED 1965-12-09 09:00:00 TS 12.7375 74.1777 main 66 65 P________PP___ IO131965 12.7500 74.1576 -1 12.7500 74.1576 TC 35 12.7126 74.2180 3 9 342
1965339N06071 1965 119 NI AS NOT_NAMED 1965-12-09 12:00:00 TS 13.1880 74.0206 main 76 75 O________OP___ jtwc_io IO131965 13.2000 74.0000 -1 13.2000 74.0000 TC 35 13.1641 74.0619 3 9 342
1965339N06071 1965 119 NI AS NOT_NAMED 1965-12-09 15:00:00 TS 13.5766 73.8999 main 82 78 P________PO___ IO131965 13.5650 73.8999 -1 13.5650 73.8999 TC 35 13.6000 73.9000 3 8 343
1965339N06071 1965 119 NI AS NOT_NAMED 1965-12-09 18:00:00 TS 13.9238 73.7943 main 78 72 O________OP___ jtwc_io IO131965 13.9000 73.8000 -1 13.9000 73.8000 TC 35 13.9715 73.7829 3 7 341
1965339N06071 1965 119 NI AS NOT_NAMED 1965-12-09 21:00:00 TS 14.2691 73.6599 main 70 63 P________PP___ IO131965 14.2425 73.6575 -1 14.2425 73.6575 TC 35 14.3224 73.6646 3 8 339
1965339N06071 1965 119 NI AS NOT_NAMED 1965-12-10 00:00:00 TS 14.6207 73.5130 main 68 54 O________OP___ jtwc_io IO131965 14.6000 73.5000 -1 14.6000 73.5000 TC 35 14.6621 73.5391 3 8 339
1965339N06071 1965 119 NI AS NOT_NAMED 1965-12-10 03:00:00 TS 15.0000 73.3666 main 54 54 P________PO___ IO131965 15.0000 73.3500 -1 15.0000 73.3500 TC 35 15.0000 73.4000 3 8 339
1965339N06071 1965 119 NI AS NOT_NAMED 1965-12-10 06:00:00 TS 15.3942 73.2091 main 58 54 O________OP___ jtwc_io IO131965 15.4000 73.2000 -1 15.4000 73.2000 TC 35 15.3825 73.2274 3 8 338
1965339N06071 1965 119 NI AS NOT_NAMED 1965-12-10 09:00:00 TS 15.7683 73.0476 main 63 54 P________PP___ IO131965 15.7725 73.0500 -1 15.7725 73.0500 TC 35 15.7601 73.0429 3 8 336
1965339N06071 1965 119 NI AS NOT_NAMED 1965-12-10 12:00:00 TS 16.1025 72.8873 main 61 54 O________OP___ jtwc_io IO131965 16.1000 72.9000 -1 16.1000 72.9000 TC 35 16.1076 72.8618 3 7 334
1965339N06071 1965 119 NI AS NOT_NAMED 1965-12-10 15:00:00 TS 16.3867 72.7333 main 64 63 P________PO___ IO131965 16.3800 72.7500 -1 16.3800 72.7500 TC 35 16.4000 72.7000 3 6 330
1965339N06071 1965 119 NI AS NOT_NAMED 1965-12-10 18:00:00 TS 16.6025 72.5873 main 74 74 O________OP___ jtwc_io IO131965 16.6000 72.6000 -1 16.6000 72.6000 TC 35 16.6074 72.5619 3 5 323
1965339N06071 1965 119 NI AS NOT_NAMED 1965-12-10 21:00:00 TS 16.7683 72.4341 main 95 95 P________PP___ IO131965 16.7725 72.4275 -1 16.7725 72.4275 TC 35 16.7599 72.4472 3 4 319
1965339N06071 1965 119 NI AS NOT_NAMED 1965-12-11 00:00:00 TS 16.8942 72.3196 main 106 105 O________OP___ jtwc_io IO131965 16.9000 72.3000 -1 16.9000 72.3000 TC 35 16.8825 72.3589 3 3 329
1965339N06071 1965 119 NI AS NOT_NAMED 1965-12-11 03:00:00 TS 17.0000 72.2850 main 105 101 P________PO___ IO131965 17.0000 72.2775 -1 17.0000 72.2775 TC 35 17.0000 72.3000 3 2 349
1965339N06071 1965 119 NI AS NOT_NAMED 1965-12-11 06:00:00 TS 17.1207 72.2890 main 101 91 O________OP___ jtwc_io IO131965 17.1000 72.3000 -1 17.1000 72.3000 TC 35 17.1622 72.2671 3 3 0
1965339N06071 1965 119 NI AS NOT_NAMED 1965-12-11 09:00:00 TS 17.2692 72.2875 main 91 87 P________PP___ IO131965 17.2425 72.3000 -1 17.2425 72.3000 TC 35 17.3225 72.2624 3 3 4
1965339N06071 1965 119 NI AS NOT_NAMED 1965-12-11 12:00:00 TS 17.4238 72.2922 main 87 84 O________OP___ jtwc_io IO131965 17.4000 72.3000 -1 17.4000 72.3000 TC 35 17.4715 72.2765 3 3 0
1965339N06071 1965 119 NI AS NOT_NAMED 1965-12-11 15:00:00 TS 17.5717 72.2950 main 84 81 P________PO___ IO131965 17.5575 72.2925 -1 17.5575 72.2925 TC 35 17.6000 72.3000 3 3 3
1965339N06071 1965 119 NI AS NOT_NAMED 1965-12-11 18:00:00 TS 17.7005 72.3100 main 81 77 O________OP___ jtwc_io IO131965 17.7000 72.3000 -1 17.7000 72.3000 TC 35 17.7013 72.3250 3 2 7
1965339N06071 1965 119 NI AS NOT_NAMED 1965-12-11 21:00:00 TS 17.7972 72.3443 main 77 62 P________PP___ IO131965 17.8100 72.3400 -1 17.8100 72.3400 TC 30 17.7800 72.3501 3 2 23
1965339N06071 1965 119 NI AS NOT_NAMED 1965-12-12 00:00:00 TS 17.8719 72.3875 main 62 62 O________OP___ jtwc_io IO131965 17.9000 72.4000 -1 17.9000 72.4000 TC 25 17.8438 72.3750 3 1 30
1965339N06071 1965 119 NI AS NOT_NAMED 1965-12-12 03:00:00 NR 17.9000 72.4000 main 62 __________O___ IO131965 -1 TC 17.9000 72.4000 1 1 45

IBTrACS Databaseについて

本データベースは、米国NOAAが公開する1842年以降の世界の熱帯低気圧のベストトラックデータアーカイブInternational Best Track Archive for Climate Stewardship (IBTrACS)を、ウェブで閲覧しやすい形式に変換したものです。

最終更新日:2021-12-06